createdAt,value
2022-08-11T00:01:19.359Z,19.85
2022-08-11T00:03:57.684Z,19.83
2022-08-11T00:06:34.694Z,19.84
2022-08-11T00:09:03.821Z,19.81
2022-08-11T00:11:58.565Z,19.81
2022-08-11T00:14:36.073Z,19.80
2022-08-11T00:17:10.491Z,19.73
2022-08-11T00:20:14.977Z,19.68
2022-08-11T00:22:40.133Z,19.61
2022-08-11T00:25:25.516Z,19.54
2022-08-11T00:27:52.104Z,19.53
2022-08-11T00:30:18.688Z,19.51
2022-08-11T00:32:54.397Z,19.50
2022-08-11T00:35:51.966Z,19.41
2022-08-11T00:38:14.148Z,19.42
2022-08-11T00:40:59.408Z,19.40
2022-08-11T00:43:42.896Z,19.38
2022-08-11T00:46:16.352Z,19.35
2022-08-11T00:48:59.600Z,19.32
2022-08-11T00:52:05.517Z,19.27
2022-08-11T00:54:44.971Z,19.25
2022-08-11T00:57:38.537Z,19.18
2022-08-11T01:00:13.467Z,19.11
2022-08-11T01:03:17.957Z,19.05
2022-08-11T01:06:13.259Z,18.98
2022-08-11T01:08:57.428Z,18.95
2022-08-11T01:11:55.141Z,18.89
2022-08-11T01:15:00.028Z,18.85
2022-08-11T01:18:13.896Z,18.83
2022-08-11T01:20:49.725Z,18.78
2022-08-11T01:23:47.798Z,18.77
2022-08-11T01:26:49.575Z,18.71
2022-08-11T01:29:36.735Z,18.68
2022-08-11T01:32:23.330Z,18.66
2022-08-11T01:35:29.721Z,18.59
2022-08-11T01:38:17.865Z,18.54
2022-08-11T01:41:23.897Z,18.40
2022-08-11T01:44:27.596Z,18.35
2022-08-11T01:47:35.233Z,18.27
2022-08-11T01:50:12.572Z,18.25
2022-08-11T01:53:04.799Z,18.26
2022-08-11T01:55:55.242Z,18.24
2022-08-11T01:58:50.118Z,18.24
2022-08-11T02:01:40.851Z,18.20
2022-08-11T02:04:29.944Z,18.13
2022-08-11T02:07:11.420Z,18.12
2022-08-11T02:09:49.907Z,18.10
2022-08-11T02:12:35.871Z,18.07
2022-08-11T02:15:27.551Z,18.02
2022-08-11T02:18:20.163Z,18.02
2022-08-11T02:21:18.856Z,17.99
2022-08-11T02:24:05.990Z,17.96
2022-08-11T02:26:42.021Z,17.90
2022-08-11T02:29:42.145Z,17.87
2022-08-11T02:32:41.750Z,17.81
2022-08-11T02:35:16.406Z,17.82
2022-08-11T02:38:01.164Z,17.75
2022-08-11T02:40:46.100Z,17.70
2022-08-11T02:43:27.745Z,17.71
2022-08-11T02:46:18.054Z,17.72
2022-08-11T02:49:17.731Z,17.71
2022-08-11T02:52:14.196Z,17.65
2022-08-11T02:54:48.137Z,17.61
2022-08-11T02:57:59.327Z,17.57
2022-08-11T03:00:29.610Z,17.53
2022-08-11T03:03:37.368Z,17.49
2022-08-11T03:06:24.342Z,17.48
2022-08-11T03:09:03.060Z,17.43
2022-08-11T03:12:15.192Z,17.41
2022-08-11T03:15:12.808Z,17.38
2022-08-11T03:18:03.159Z,17.35
2022-08-11T03:20:43.647Z,17.32
2022-08-11T03:23:19.898Z,17.28
2022-08-11T03:25:56.051Z,17.21
2022-08-11T03:28:51.587Z,17.21
2022-08-11T03:31:29.694Z,17.21
2022-08-11T03:34:08.385Z,17.16
2022-08-11T03:37:14.911Z,17.16
2022-08-11T03:40:09.048Z,17.13
2022-08-11T03:42:44.024Z,17.10
2022-08-11T03:45:31.719Z,17.06
2022-08-11T03:48:23.071Z,17.02
2022-08-11T03:51:12.693Z,16.95
2022-08-11T03:53:55.204Z,16.92
2022-08-11T03:56:45.616Z,16.85
2022-08-11T03:59:51.178Z,16.70
2022-08-11T04:02:41.614Z,16.65
2022-08-11T04:05:16.967Z,16.66
2022-08-11T04:07:49.168Z,16.70
2022-08-11T04:10:33.917Z,16.70
2022-08-11T04:13:26.826Z,16.71
2022-08-11T04:16:25.606Z,16.67
2022-08-11T04:19:14.264Z,16.65
2022-08-11T04:22:20.780Z,16.58
2022-08-11T04:25:12.077Z,16.55
2022-08-11T04:28:06.462Z,16.54
2022-08-11T04:30:58.847Z,16.43
2022-08-11T04:33:56.078Z,16.39
2022-08-11T04:37:17.103Z,16.41
2022-08-11T04:40:25.521Z,16.42
2022-08-11T04:43:19.471Z,16.36
2022-08-11T04:46:00.955Z,16.36
2022-08-11T04:49:08.157Z,16.39
2022-08-11T04:52:25.633Z,16.38
2022-08-11T04:55:44.976Z,16.35
2022-08-11T04:58:48.601Z,16.30
2022-08-11T05:01:37.683Z,16.31
2022-08-11T05:04:39.635Z,16.34
2022-08-11T05:07:40.141Z,16.36
2022-08-11T05:10:34.488Z,16.40
2022-08-11T05:13:30.774Z,16.42
2022-08-11T05:16:27.527Z,16.47
2022-08-11T05:19:16.374Z,16.52
2022-08-11T05:22:12.892Z,16.62
2022-08-11T05:26:43.388Z,16.82
2022-08-11T05:28:40.737Z,17.03
2022-08-11T05:31:32.664Z,17.38
2022-08-11T05:34:22.005Z,18.84
2022-08-11T05:36:56.421Z,20.32
2022-08-11T05:39:52.911Z,21.21
2022-08-11T05:42:41.767Z,19.99
2022-08-11T05:45:57.303Z,19.54
2022-08-11T05:48:40.916Z,19.64
2022-08-11T05:51:30.292Z,20.11
2022-08-11T05:54:28.806Z,21.95
2022-08-11T05:57:02.297Z,24.89
2022-08-11T05:59:31.356Z,27.32
2022-08-11T06:02:07.343Z,27.69
2022-08-11T06:04:34.978Z,27.89
2022-08-11T06:07:09.462Z,27.02
2022-08-11T06:09:37.243Z,25.47
2022-08-11T06:12:22.656Z,24.15
2022-08-11T06:14:57.398Z,23.41
2022-08-11T06:17:26.393Z,24.57
2022-08-11T06:20:07.592Z,27.52
2022-08-11T06:22:34.822Z,28.55
2022-08-11T06:25:02.682Z,29.15
2022-08-11T06:27:35.521Z,30.05
2022-08-11T06:30:13.406Z,29.95
2022-08-11T06:32:44.428Z,31.79
2022-08-11T06:35:46.778Z,34.08
2022-08-11T06:38:26.318Z,35.07
2022-08-11T06:41:26.847Z,35.83
2022-08-11T06:44:06.663Z,36.68
2022-08-11T06:46:39.455Z,36.93
2022-08-11T06:49:31.323Z,37.21
2022-08-11T06:52:02.949Z,36.12
2022-08-11T06:54:36.268Z,33.68
2022-08-11T06:57:31.947Z,30.42
2022-08-11T07:00:28.301Z,28.51
2022-08-11T07:03:03.316Z,26.95
2022-08-11T07:05:49.852Z,26.07
2022-08-11T07:08:53.914Z,25.39
2022-08-11T07:12:05.032Z,24.88
2022-08-11T07:14:51.740Z,24.48
2022-08-11T07:17:25.687Z,24.16
2022-08-11T07:20:14.828Z,23.93
2022-08-11T07:23:02.408Z,23.64
2022-08-11T07:25:50.530Z,23.52
2022-08-11T07:28:47.135Z,23.44
2022-08-11T07:31:29.210Z,23.45
2022-08-11T07:34:11.142Z,23.50
2022-08-11T07:36:45.892Z,24.25
2022-08-11T07:39:39.109Z,27.62
2022-08-11T07:42:09.872Z,29.02
2022-08-11T07:44:59.920Z,30.27
2022-08-11T07:47:46.608Z,31.46
2022-08-11T07:50:32.363Z,32.38
2022-08-11T07:53:00.721Z,32.65
2022-08-11T07:55:51.180Z,33.25
2022-08-11T07:58:38.776Z,33.92
2022-08-11T08:01:37.013Z,34.31
2022-08-11T08:04:24.460Z,34.16
2022-08-11T08:07:10.338Z,33.89
2022-08-11T08:09:56.471Z,34.22
2022-08-11T08:12:44.327Z,34.26
2022-08-11T08:15:31.678Z,34.76
2022-08-11T08:18:09.745Z,34.88
2022-08-11T08:20:50.095Z,34.80
2022-08-11T08:23:18.727Z,34.86
2022-08-11T08:25:46.325Z,35.07
2022-08-11T08:28:16.396Z,35.13
2022-08-11T08:30:51.274Z,34.97
2022-08-11T08:33:26.303Z,35.18
2022-08-11T08:36:11.810Z,35.29
2022-08-11T08:38:42.715Z,35.14
2022-08-11T08:41:13.076Z,35.28
2022-08-11T08:43:48.763Z,35.32
2022-08-11T08:46:19.148Z,35.30
2022-08-11T08:48:48.000Z,35.54
2022-08-11T08:51:54.805Z,35.55
2022-08-11T08:54:25.542Z,35.42
2022-08-11T08:56:56.143Z,35.53
2022-08-11T08:59:26.591Z,35.50
2022-08-11T09:02:13.392Z,35.44
2022-08-11T09:04:42.593Z,35.54
2022-08-11T09:07:15.428Z,35.36
2022-08-11T09:09:50.807Z,35.58
2022-08-11T09:12:38.122Z,35.74
2022-08-11T09:15:09.270Z,35.73
2022-08-11T09:17:40.892Z,35.95
2022-08-11T09:20:13.840Z,35.88
2022-08-11T09:26:12.395Z,36.03
2022-08-11T09:28:39.524Z,35.96
2022-08-11T09:31:07.039Z,36.00
2022-08-11T09:33:34.227Z,35.95
2022-08-11T09:36:24.378Z,36.08
2022-08-11T09:39:11.674Z,36.21
2022-08-11T09:42:00.758Z,36.47
2022-08-11T09:44:46.690Z,36.16
2022-08-11T09:47:30.190Z,36.17
2022-08-11T09:50:01.563Z,36.11
2022-08-11T09:52:36.483Z,35.85
2022-08-11T09:55:10.790Z,36.03
2022-08-11T09:57:59.207Z,36.19
2022-08-11T10:00:37.797Z,35.85
2022-08-11T10:03:12.262Z,36.05
2022-08-11T10:06:05.869Z,36.11
2022-08-11T10:08:38.066Z,36.12
2022-08-11T10:11:08.780Z,36.34
2022-08-11T10:14:33.664Z,36.15
2022-08-11T10:16:49.498Z,35.91
2022-08-11T10:19:19.320Z,35.96
2022-08-11T10:22:09.469Z,35.87
2022-08-11T10:24:55.790Z,36.00
2022-08-11T10:27:27.228Z,36.25
2022-08-11T10:30:25.836Z,36.43
2022-08-11T10:33:18.972Z,36.58
2022-08-11T10:36:00.174Z,36.05
2022-08-11T10:38:27.757Z,35.82
2022-08-11T10:41:14.015Z,35.87
2022-08-11T10:44:01.497Z,35.89
2022-08-11T10:46:46.877Z,35.92
2022-08-11T10:49:13.658Z,35.92
2022-08-11T10:51:59.064Z,36.02
2022-08-11T10:54:44.884Z,35.72
2022-08-11T10:57:30.785Z,35.69
2022-08-11T10:59:58.149Z,35.62
2022-08-11T11:02:27.295Z,35.73
2022-08-11T11:05:09.476Z,35.46
2022-08-11T11:07:56.396Z,35.14
2022-08-11T11:10:22.902Z,35.06
2022-08-11T11:13:15.661Z,35.25
2022-08-11T11:16:04.779Z,35.74
2022-08-11T11:18:36.009Z,35.72
2022-08-11T11:21:04.357Z,35.83
2022-08-11T11:24:01.776Z,35.69
2022-08-11T11:26:43.545Z,35.99
2022-08-11T11:29:27.553Z,35.83
2022-08-11T11:32:22.795Z,35.82
2022-08-11T11:35:04.271Z,35.81
2022-08-11T11:37:35.661Z,35.52
2022-08-11T11:40:10.657Z,35.47
2022-08-11T11:42:42.070Z,35.51
2022-08-11T11:45:10.093Z,35.00
2022-08-11T11:47:54.185Z,35.05
2022-08-11T11:50:32.953Z,35.29
2022-08-11T11:53:01.688Z,35.03
2022-08-11T11:55:29.608Z,34.81
2022-08-11T11:58:18.750Z,34.82
2022-08-11T12:01:05.332Z,34.66
2022-08-11T12:03:33.716Z,34.87
2022-08-11T12:06:01.004Z,34.95
2022-08-11T12:08:29.086Z,34.47
2022-08-11T12:11:17.982Z,34.40
2022-08-11T12:13:50.424Z,34.25
2022-08-11T12:16:32.826Z,34.19
2022-08-11T12:19:05.817Z,34.28
2022-08-11T12:21:34.495Z,34.39
2022-08-11T12:24:21.779Z,34.24
2022-08-11T12:26:54.395Z,34.15
2022-08-11T12:29:39.976Z,34.08
2022-08-11T12:32:12.911Z,34.06
2022-08-11T12:34:39.600Z,34.07
2022-08-11T12:37:13.659Z,33.94
2022-08-11T12:40:16.003Z,34.26
2022-08-11T12:45:41.614Z,33.89
2022-08-11T12:48:58.776Z,33.96
2022-08-11T12:52:13.650Z,34.22
2022-08-11T12:54:58.701Z,34.39
2022-08-11T12:58:00.418Z,34.41
2022-08-11T13:00:46.782Z,34.50
2022-08-11T13:03:32.869Z,34.55
2022-08-11T13:06:04.600Z,34.70
2022-08-11T13:08:35.498Z,34.37
2022-08-11T13:11:22.312Z,34.31
2022-08-11T13:13:52.919Z,34.20
2022-08-11T13:16:24.400Z,34.50
2022-08-11T13:18:53.434Z,34.48
2022-08-11T13:21:21.788Z,34.62
2022-08-11T13:23:59.890Z,34.39
2022-08-11T13:26:47.466Z,34.16
2022-08-11T13:29:21.875Z,34.23
2022-08-11T13:31:49.197Z,34.54
2022-08-11T13:34:21.278Z,34.44
2022-08-11T13:36:53.326Z,34.44
2022-08-11T13:39:25.136Z,34.66
2022-08-11T13:41:56.403Z,34.56
2022-08-11T13:44:27.265Z,34.46
2022-08-11T13:46:59.319Z,34.26
2022-08-11T13:49:26.355Z,34.60
2022-08-11T13:51:55.216Z,34.71
2022-08-11T13:54:24.290Z,34.85
2022-08-11T13:56:56.204Z,34.31
2022-08-11T13:59:29.968Z,34.29
2022-08-11T14:02:21.995Z,34.61
2022-08-11T14:04:58.123Z,34.44
2022-08-11T14:07:35.216Z,34.31
2022-08-11T14:10:04.404Z,34.63
2022-08-11T14:12:53.376Z,35.06
2022-08-11T14:15:31.870Z,35.03
2022-08-11T14:18:05.091Z,35.02
2022-08-11T14:20:54.079Z,34.84
2022-08-11T14:23:42.323Z,34.71
2022-08-11T14:26:28.885Z,34.29
2022-08-11T14:29:00.772Z,34.34
2022-08-11T14:31:29.595Z,34.52
2022-08-11T14:34:02.344Z,34.48
2022-08-11T14:36:32.864Z,34.32
2022-08-11T14:39:01.998Z,34.15
2022-08-11T14:42:11.637Z,34.26
2022-08-11T14:44:54.888Z,34.47
2022-08-11T14:47:25.407Z,34.42
2022-08-11T14:50:04.957Z,34.35
2022-08-11T14:52:41.232Z,34.46
2022-08-11T14:55:27.212Z,34.48
2022-08-11T14:57:57.025Z,34.40
2022-08-11T15:00:24.963Z,34.49
2022-08-11T15:03:11.049Z,34.33
2022-08-11T15:05:56.092Z,33.94
2022-08-11T15:08:47.172Z,33.94
2022-08-11T15:11:34.656Z,33.90
2022-08-11T15:14:02.996Z,33.70
2022-08-11T15:16:48.600Z,34.12
2022-08-11T15:19:16.927Z,34.39
2022-08-11T15:22:02.021Z,34.32
2022-08-11T15:24:30.933Z,34.16
2022-08-11T15:27:17.993Z,34.07
2022-08-11T15:30:04.984Z,34.19
2022-08-11T15:32:50.794Z,34.37
2022-08-11T15:35:39.105Z,34.01
2022-08-11T15:38:11.576Z,33.76
2022-08-11T15:40:58.718Z,33.97
2022-08-11T15:43:47.888Z,34.23
2022-08-11T15:46:18.385Z,34.20
2022-08-11T15:48:50.401Z,34.04
2022-08-11T15:51:33.236Z,33.80
2022-08-11T15:54:08.553Z,33.75
2022-08-11T15:56:39.098Z,33.78
2022-08-11T15:59:42.092Z,33.61
2022-08-11T16:02:33.766Z,33.42
2022-08-11T16:05:04.327Z,33.38
2022-08-11T16:07:36.889Z,33.25
2022-08-11T16:10:18.696Z,33.29
2022-08-11T16:13:07.812Z,33.28
2022-08-11T16:15:59.011Z,33.39
2022-08-11T16:18:40.542Z,33.29
2022-08-11T16:21:34.465Z,33.30
2022-08-11T16:24:06.310Z,33.38
2022-08-11T16:27:07.748Z,33.27
2022-08-11T16:29:25.346Z,33.19
2022-08-11T16:32:13.347Z,33.08
2022-08-11T16:34:59.087Z,33.13
2022-08-11T16:37:45.456Z,33.03
2022-08-11T16:40:13.223Z,32.83
2022-08-11T16:43:06.318Z,32.64
2022-08-11T16:45:56.454Z,32.71
2022-08-11T16:48:33.435Z,32.70
2022-08-11T16:51:04.696Z,32.56
2022-08-11T16:54:00.150Z,32.40
2022-08-11T16:56:23.224Z,32.30
2022-08-11T17:01:48.945Z,32.23
2022-08-11T17:04:48.834Z,32.16
2022-08-11T17:07:42.156Z,32.09
2022-08-11T17:10:52.755Z,31.99
2022-08-11T17:13:40.112Z,32.00
2022-08-11T17:16:12.825Z,31.89
2022-08-11T17:18:48.908Z,31.77
2022-08-11T17:21:20.305Z,31.74
2022-08-11T17:24:05.056Z,31.77
2022-08-11T17:26:57.050Z,31.61
2022-08-11T17:29:54.837Z,31.44
2022-08-11T17:32:57.228Z,31.39
2022-08-11T17:35:38.491Z,31.24
2022-08-11T17:38:12.514Z,31.14
2022-08-11T17:41:03.156Z,31.06
2022-08-11T17:43:49.934Z,31.03
2022-08-11T17:46:35.746Z,31.02
2022-08-11T17:49:03.652Z,30.89
2022-08-11T17:51:49.543Z,30.79
2022-08-11T17:54:34.829Z,30.66
2022-08-11T17:57:21.981Z,30.66
2022-08-11T17:59:53.876Z,30.61
2022-08-11T18:02:43.583Z,30.54
2022-08-11T18:05:13.603Z,30.46
2022-08-11T18:08:01.848Z,30.36
2022-08-11T18:10:49.471Z,30.25
2022-08-11T18:13:37.615Z,30.11
2022-08-11T18:16:23.225Z,29.95
2022-08-11T18:19:08.357Z,29.79
2022-08-11T18:22:10.973Z,29.71
2022-08-11T18:25:05.214Z,29.59
2022-08-11T18:27:53.222Z,29.54
2022-08-11T18:30:38.476Z,29.40
2022-08-11T18:33:50.639Z,29.35
2022-08-11T18:36:37.641Z,29.35
2022-08-11T18:39:24.987Z,29.33
2022-08-11T18:42:14.912Z,29.27
2022-08-11T18:45:07.796Z,29.20
2022-08-11T18:47:57.065Z,29.11
2022-08-11T18:50:42.999Z,29.02
2022-08-11T18:53:41.164Z,28.92
2022-08-11T18:56:26.341Z,28.75
2022-08-11T18:59:12.320Z,28.68
2022-08-11T19:01:57.988Z,28.59
2022-08-11T19:04:44.289Z,28.47
2022-08-11T19:07:31.081Z,28.35
2022-08-11T19:10:17.781Z,28.20
2022-08-11T19:13:05.031Z,28.08
2022-08-11T19:15:51.245Z,27.93
2022-08-11T19:18:39.591Z,27.82
2022-08-11T19:21:26.344Z,27.71
2022-08-11T19:24:15.005Z,27.60
2022-08-11T19:27:01.854Z,27.50
2022-08-11T19:30:09.095Z,27.42
2022-08-11T19:32:53.965Z,27.31
2022-08-11T19:35:39.332Z,27.18
2022-08-11T19:38:24.606Z,27.08
2022-08-11T19:41:11.584Z,26.94
2022-08-11T19:43:57.948Z,26.87
2022-08-11T19:46:44.270Z,26.77
2022-08-11T19:49:30.292Z,26.63
2022-08-11T19:52:17.391Z,26.54
2022-08-11T19:55:03.243Z,26.48
2022-08-11T19:57:50.214Z,26.39
2022-08-11T20:00:38.828Z,26.23
2022-08-11T20:03:27.627Z,26.15
2022-08-11T20:06:15.592Z,26.02
2022-08-11T20:09:04.009Z,25.90
2022-08-11T20:11:55.329Z,25.81
2022-08-11T20:14:43.120Z,25.75
2022-08-11T20:17:32.312Z,25.71
2022-08-11T20:20:19.772Z,25.65
2022-08-11T20:23:08.168Z,25.54
2022-08-11T20:26:03.392Z,25.45
2022-08-11T20:28:55.965Z,25.36
2022-08-11T20:31:42.612Z,25.28
2022-08-11T20:34:29.649Z,25.24
2022-08-11T20:37:18.423Z,25.17
2022-08-11T20:40:04.873Z,25.12
2022-08-11T20:42:52.181Z,25.06
2022-08-11T20:45:38.439Z,24.97
2022-08-11T20:48:41.998Z,24.90
2022-08-11T20:51:27.803Z,24.84
2022-08-11T20:54:20.237Z,24.75
2022-08-11T20:57:57.796Z,24.67
2022-08-11T21:00:39.468Z,24.63
2022-08-11T21:03:36.044Z,24.55
2022-08-11T21:06:33.017Z,24.49
2022-08-11T21:09:25.066Z,24.37
2022-08-11T21:12:30.997Z,24.34
2022-08-11T21:15:38.945Z,24.30
2022-08-11T21:18:28.212Z,24.19
2022-08-11T21:21:18.317Z,24.18
2022-08-11T21:24:06.289Z,24.11
2022-08-11T21:26:54.241Z,24.04
2022-08-11T21:29:40.330Z,24.00
2022-08-11T21:32:25.712Z,23.94
2022-08-11T21:35:12.001Z,23.90
2022-08-11T21:37:57.994Z,23.82
2022-08-11T21:40:46.139Z,23.75
2022-08-11T21:43:34.095Z,23.70
2022-08-11T21:46:21.371Z,23.64
2022-08-11T21:49:07.697Z,23.61
2022-08-11T21:51:52.700Z,23.56
2022-08-11T21:54:38.860Z,23.53
2022-08-11T21:57:25.356Z,23.45
2022-08-11T22:00:16.818Z,23.39
2022-08-11T22:03:04.177Z,23.34
2022-08-11T22:05:52.478Z,23.32
2022-08-11T22:08:38.221Z,23.28
2022-08-11T22:11:32.004Z,23.19
2022-08-11T22:14:18.128Z,23.15
2022-08-11T22:17:02.989Z,23.11
2022-08-11T22:19:49.170Z,23.04
2022-08-11T22:22:34.493Z,23.01
2022-08-11T22:25:38.614Z,22.94
2022-08-11T22:28:23.953Z,22.93
2022-08-11T22:31:09.447Z,22.86
2022-08-11T22:34:02.963Z,22.80
2022-08-11T22:36:49.448Z,22.73
2022-08-11T22:39:35.711Z,22.69
2022-08-11T22:42:32.253Z,22.63
2022-08-11T22:45:19.588Z,22.59
2022-08-11T22:48:07.722Z,22.53
2022-08-11T22:50:55.292Z,22.52
2022-08-11T22:53:57.150Z,22.47
2022-08-11T22:56:48.468Z,22.44
2022-08-11T22:59:34.636Z,22.44
2022-08-11T23:02:20.949Z,22.40
2022-08-11T23:05:07.987Z,22.33
2022-08-11T23:07:54.766Z,22.27
2022-08-11T23:10:41.742Z,22.21
2022-08-11T23:13:28.104Z,22.16
2022-08-11T23:16:14.427Z,22.08
2022-08-11T23:19:00.865Z,21.98
2022-08-11T23:21:46.771Z,21.89
2022-08-11T23:24:32.264Z,21.83
2022-08-11T23:27:19.122Z,21.77
2022-08-11T23:30:06.689Z,21.71
2022-08-11T23:32:51.925Z,21.65
2022-08-11T23:35:54.011Z,21.60
2022-08-11T23:38:43.271Z,21.54
2022-08-11T23:41:28.759Z,21.51
2022-08-11T23:44:14.294Z,21.46
2022-08-11T23:47:00.974Z,21.43
2022-08-11T23:49:47.108Z,21.39
2022-08-11T23:52:34.071Z,21.35
2022-08-11T23:55:19.146Z,21.30
2022-08-11T23:58:04.558Z,21.22
